createdAt,value
2017-12-04T00:00:50.560Z,2.60
2017-12-04T00:03:18.831Z,2.60
2017-12-04T00:05:47.050Z,2.80
2017-12-04T00:08:15.431Z,2.20
2017-12-04T00:10:43.657Z,2.80
2017-12-04T00:13:11.902Z,2.10
2017-12-04T00:15:40.176Z,1.60
2017-12-04T00:18:08.405Z,2.50
2017-12-04T00:20:37.476Z,2.30
2017-12-04T00:23:05.697Z,2.30
2017-12-04T00:25:33.922Z,1.90
2017-12-04T00:28:02.214Z,2.10
2017-12-04T00:30:30.471Z,1.70
2017-12-04T00:32:58.697Z,1.90
2017-12-04T00:35:26.997Z,2.70
2017-12-04T00:37:55.215Z,2.20
2017-12-04T00:40:24.208Z,1.70
2017-12-04T00:42:52.504Z,1.70
2017-12-04T00:45:20.730Z,2.00
2017-12-04T00:47:48.958Z,2.00
2017-12-04T00:50:17.255Z,2.60
2017-12-04T00:52:45.468Z,2.90
2017-12-04T00:55:13.693Z,2.20
2017-12-04T00:57:41.965Z,2.60
2017-12-04T01:00:10.175Z,2.50
2017-12-04T01:02:38.395Z,2.90
2017-12-04T01:05:07.422Z,2.80
2017-12-04T01:07:35.731Z,2.80
2017-12-04T01:10:03.953Z,2.60
2017-12-04T01:12:32.176Z,2.60
2017-12-04T01:15:00.465Z,2.70
2017-12-04T01:17:28.691Z,3.20
2017-12-04T01:19:56.913Z,3.20
2017-12-04T01:22:25.212Z,2.30
2017-12-04T01:24:54.186Z,1.70
2017-12-04T01:27:22.425Z,1.70
2017-12-04T01:29:50.719Z,2.20
2017-12-04T01:32:18.932Z,3.00
2017-12-04T01:34:47.981Z,2.20
2017-12-04T01:37:16.227Z,2.20
2017-12-04T01:39:44.446Z,2.10
2017-12-04T01:42:12.828Z,2.90
2017-12-04T01:44:41.049Z,2.20
2017-12-04T01:47:09.275Z,1.90
2017-12-04T01:49:37.539Z,1.90
2017-12-04T01:52:05.791Z,2.40
2017-12-04T01:54:34.027Z,2.60
2017-12-04T01:57:03.267Z,1.60
2017-12-04T01:59:31.490Z,1.60
2017-12-04T02:01:59.701Z,1.60
2017-12-04T02:04:27.993Z,1.70
2017-12-04T02:06:56.219Z,1.70
2017-12-04T02:09:25.214Z,1.50
2017-12-04T02:11:54.258Z,1.30
2017-12-04T02:14:22.482Z,1.30
2017-12-04T02:16:50.749Z,1.30
2017-12-04T02:19:19.039Z,1.50
2017-12-04T02:21:48.019Z,1.00
2017-12-04T02:24:16.289Z,1.00
2017-12-04T02:26:44.543Z,1.00
2017-12-04T02:29:12.781Z,1.00
2017-12-04T02:31:41.170Z,1.00
2017-12-04T02:34:09.403Z,1.00
2017-12-04T02:36:38.405Z,0.90
2017-12-04T02:39:07.472Z,0.90
2017-12-04T02:41:35.712Z,0.90
2017-12-04T02:44:03.953Z,1.00
2017-12-04T02:46:32.276Z,0.90
2017-12-04T02:49:00.502Z,0.90
2017-12-04T02:51:28.798Z,1.00
2017-12-04T02:53:57.132Z,1.10
2017-12-04T02:56:25.345Z,1.00
2017-12-04T02:58:53.608Z,1.10
2017-12-04T03:01:22.689Z,1.00
2017-12-04T03:03:51.701Z,1.10
2017-12-04T03:06:19.938Z,1.00
2017-12-04T03:08:49.134Z,1.10
2017-12-04T03:11:17.418Z,1.10
2017-12-04T03:13:45.671Z,1.20
2017-12-04T03:16:13.946Z,1.30
2017-12-04T03:18:42.240Z,1.20
2017-12-04T03:21:11.204Z,1.20
2017-12-04T03:23:39.454Z,1.20
2017-12-04T03:26:07.714Z,1.20
2017-12-04T03:28:36.007Z,1.20
2017-12-04T03:31:04.252Z,1.30
2017-12-04T03:33:33.263Z,1.30
2017-12-04T03:36:01.674Z,1.20
2017-12-04T03:38:29.903Z,1.30
2017-12-04T03:40:58.904Z,1.20
2017-12-04T03:43:27.179Z,1.20
2017-12-04T03:45:55.488Z,1.30
2017-12-04T03:48:23.746Z,1.20
2017-12-04T03:50:51.986Z,1.30
2017-12-04T03:53:20.273Z,1.30
2017-12-04T03:55:49.267Z,1.30
2017-12-04T03:58:18.273Z,1.30
2017-12-04T04:00:46.610Z,1.20
2017-12-04T04:03:14.863Z,1.30
2017-12-04T04:05:43.089Z,1.30
2017-12-04T04:08:12.983Z,1.30
2017-12-04T04:10:42.017Z,1.40
2017-12-04T04:13:10.340Z,1.40
2017-12-04T04:15:38.578Z,1.30
2017-12-04T04:18:06.835Z,1.30
2017-12-04T04:20:35.122Z,1.40
2017-12-04T04:23:03.496Z,1.40
2017-12-04T04:25:31.782Z,1.40
2017-12-04T04:28:00.054Z,1.40
2017-12-04T04:30:28.337Z,1.50
2017-12-04T04:32:56.590Z,1.50
2017-12-04T04:35:24.826Z,1.50
2017-12-04T04:37:53.135Z,1.50
2017-12-04T04:40:21.415Z,1.50
2017-12-04T04:42:49.647Z,1.40
2017-12-04T04:45:18.730Z,1.50
2017-12-04T04:47:46.974Z,1.40
2017-12-04T04:50:15.217Z,1.50
2017-12-04T04:52:44.297Z,1.40
2017-12-04T04:55:12.535Z,1.40
2017-12-04T04:57:40.783Z,1.50
2017-12-04T05:00:09.359Z,1.40
2017-12-04T05:02:37.594Z,1.50
2017-12-04T05:05:05.842Z,1.40
2017-12-04T05:07:35.339Z,1.50
2017-12-04T05:10:04.382Z,1.50
2017-12-04T05:12:32.686Z,1.50
2017-12-04T05:15:00.942Z,1.60
2017-12-04T05:17:29.977Z,1.60
2017-12-04T05:19:58.388Z,1.60
2017-12-04T05:22:26.661Z,1.60
2017-12-04T05:24:54.967Z,1.60
2017-12-04T05:27:24.053Z,1.60
2017-12-04T05:29:53.101Z,1.60
2017-12-04T05:32:21.359Z,1.60
2017-12-04T05:34:49.791Z,1.70
2017-12-04T05:37:18.040Z,1.60
2017-12-04T05:39:46.359Z,1.60
2017-12-04T05:42:15.420Z,1.70
2017-12-04T05:44:44.418Z,1.80
2017-12-04T05:47:12.699Z,1.70
2017-12-04T05:49:41.196Z,1.70
2017-12-04T05:52:10.213Z,1.70
2017-12-04T05:54:39.218Z,1.70
2017-12-04T05:57:07.542Z,1.70
2017-12-04T05:59:35.813Z,1.80
2017-12-04T06:02:04.052Z,1.80
2017-12-04T06:04:32.406Z,1.90
2017-12-04T06:07:01.428Z,2.00
2017-12-04T06:09:29.708Z,2.00
2017-12-04T06:11:58.214Z,1.90
2017-12-04T06:14:27.281Z,1.90
2017-12-04T06:16:55.526Z,1.80
2017-12-04T06:19:23.830Z,2.10
2017-12-04T06:21:52.077Z,1.90
2017-12-04T06:24:21.075Z,1.90
2017-12-04T06:26:49.392Z,1.90
2017-12-04T06:29:17.636Z,1.90
2017-12-04T06:31:45.872Z,2.00
2017-12-04T06:34:14.168Z,1.90
2017-12-04T06:36:43.185Z,2.00
2017-12-04T06:39:11.436Z,2.00
2017-12-04T06:41:40.505Z,2.00
2017-12-04T06:44:08.744Z,2.00
2017-12-04T06:46:37.046Z,2.00
2017-12-04T06:49:05.880Z,2.00
2017-12-04T06:51:34.893Z,2.00
2017-12-04T06:54:03.208Z,2.00
2017-12-04T06:56:31.446Z,2.00
2017-12-04T06:58:59.700Z,2.00
2017-12-04T07:01:28.766Z,2.10
2017-12-04T07:03:57.019Z,2.00
2017-12-04T07:06:25.315Z,2.00
2017-12-04T07:08:53.608Z,2.10
2017-12-04T07:11:22.621Z,2.10
2017-12-04T07:13:50.875Z,2.10
2017-12-04T07:16:20.217Z,2.30
2017-12-04T07:18:48.432Z,2.20
2017-12-04T07:21:16.650Z,2.10
2017-12-04T07:23:44.974Z,2.10
2017-12-04T07:26:13.290Z,2.30
2017-12-04T07:28:41.555Z,2.40
2017-12-04T07:31:09.849Z,2.40
2017-12-04T07:33:38.857Z,2.30
2017-12-04T07:36:07.081Z,2.30
2017-12-04T07:38:35.380Z,2.30
2017-12-04T07:41:04.441Z,2.30
2017-12-04T07:43:32.682Z,2.30
2017-12-04T07:46:00.991Z,2.30
2017-12-04T07:48:29.260Z,2.30
2017-12-04T07:50:57.529Z,2.40
2017-12-04T07:53:25.843Z,2.30
2017-12-04T07:55:54.115Z,2.30
2017-12-04T07:58:22.397Z,2.40
2017-12-04T08:00:50.703Z,2.30
2017-12-04T08:03:18.962Z,2.30
2017-12-04T08:05:47.982Z,2.10
2017-12-04T08:08:16.276Z,2.00
2017-12-04T08:10:44.550Z,2.00
2017-12-04T08:13:12.838Z,2.00
2017-12-04T08:15:41.496Z,2.10
2017-12-04T08:18:09.750Z,2.00
2017-12-04T08:20:37.973Z,1.90
2017-12-04T08:23:06.289Z,1.90
2017-12-04T08:25:35.568Z,1.90
2017-12-04T08:28:03.849Z,1.90
2017-12-04T08:30:32.194Z,2.00
2017-12-04T08:33:00.482Z,2.00
2017-12-04T08:35:28.716Z,1.90
2017-12-04T08:37:57.163Z,2.10
2017-12-04T08:40:25.429Z,1.90
2017-12-04T08:42:53.681Z,2.00
2017-12-04T08:45:21.995Z,1.90
2017-12-04T08:47:51.005Z,1.70
2017-12-04T08:50:20.047Z,1.60
2017-12-04T08:52:48.341Z,1.60
2017-12-04T08:55:16.613Z,1.70
2017-12-04T08:57:44.862Z,1.80
2017-12-04T09:00:13.144Z,1.80
2017-12-04T09:02:42.189Z,1.90
2017-12-04T09:05:10.423Z,1.90
2017-12-04T09:07:38.698Z,2.00
2017-12-04T09:10:06.954Z,2.00
2017-12-04T09:12:35.552Z,2.10
2017-12-04T09:15:04.019Z,2.10
2017-12-04T09:17:32.309Z,2.20
2017-12-04T09:20:00.555Z,2.20
2017-12-04T09:22:28.834Z,2.20
2017-12-04T09:24:57.175Z,2.20
2017-12-04T09:27:26.215Z,2.30
2017-12-04T09:29:54.508Z,2.30
2017-12-04T09:32:22.762Z,2.30
2017-12-04T09:34:51.018Z,2.20
2017-12-04T09:37:19.319Z,2.20
2017-12-04T09:39:47.707Z,2.20
2017-12-04T09:42:15.962Z,2.20
2017-12-04T09:44:44.297Z,2.10
2017-12-04T09:47:13.307Z,2.00
2017-12-04T09:49:42.319Z,2.10
2017-12-04T09:52:10.608Z,2.10
2017-12-04T09:54:38.901Z,2.10
2017-12-04T09:57:07.959Z,2.20
2017-12-04T09:59:36.489Z,2.20
2017-12-04T10:02:05.285Z,2.30
2017-12-04T10:04:33.538Z,2.30
2017-12-04T10:07:01.858Z,2.30
2017-12-04T10:09:30.870Z,2.40
2017-12-04T10:11:59.108Z,2.30
2017-12-04T10:14:27.382Z,2.40
2017-12-04T10:16:55.721Z,2.40
2017-12-04T10:19:23.964Z,2.40
2017-12-04T10:21:52.264Z,2.50
2017-12-04T10:24:20.527Z,2.60
2017-12-04T10:26:48.758Z,2.60
2017-12-04T10:29:17.209Z,2.60
2017-12-04T10:31:46.218Z,2.60
2017-12-04T10:34:14.443Z,2.60
2017-12-04T10:36:42.710Z,2.60
2017-12-04T10:39:10.943Z,2.60
2017-12-04T10:41:39.468Z,2.50
2017-12-04T10:44:07.764Z,2.50
2017-12-04T10:46:36.023Z,2.60
2017-12-04T10:49:04.291Z,2.60
2017-12-04T10:51:33.349Z,2.50
2017-12-04T10:54:01.581Z,2.50
2017-12-04T10:56:29.826Z,2.60
2017-12-04T10:58:58.234Z,2.70
2017-12-04T11:01:26.509Z,2.80
2017-12-04T11:03:54.780Z,3.00
2017-12-04T11:06:23.157Z,3.00
2017-12-04T11:08:51.390Z,3.00
2017-12-04T11:11:19.674Z,3.00
2017-12-04T11:13:48.029Z,3.00
2017-12-04T11:16:16.258Z,3.10
2017-12-04T11:18:44.501Z,3.10
2017-12-04T11:21:12.839Z,3.10
2017-12-04T11:23:41.075Z,3.20
2017-12-04T11:26:10.122Z,3.00
2017-12-04T11:28:38.396Z,2.90
2017-12-04T11:31:06.711Z,2.80
2017-12-04T11:33:35.778Z,2.50
2017-12-04T11:36:04.022Z,2.40
2017-12-04T11:38:32.284Z,2.60
2017-12-04T11:41:00.547Z,2.60
2017-12-04T11:43:29.602Z,2.80
2017-12-04T11:45:58.166Z,2.80
2017-12-04T11:48:26.450Z,2.70
2017-12-04T11:50:54.702Z,2.70
2017-12-04T11:53:23.021Z,2.70
2017-12-04T11:55:51.282Z,2.70
2017-12-04T11:58:20.443Z,2.60
2017-12-04T12:00:48.824Z,2.50
2017-12-04T12:03:17.073Z,2.20
2017-12-04T12:05:46.068Z,2.40
2017-12-04T12:08:15.108Z,2.30
2017-12-04T12:10:44.147Z,2.20
2017-12-04T12:13:13.637Z,2.20
2017-12-04T12:15:42.652Z,2.30
2017-12-04T12:18:11.670Z,2.40
2017-12-04T12:20:40.007Z,2.40
2017-12-04T12:23:09.033Z,2.20
2017-12-04T12:25:37.539Z,2.20
2017-12-04T12:28:05.943Z,1.90
2017-12-04T12:30:34.202Z,2.00
2017-12-04T12:33:03.231Z,2.20
2017-12-04T12:35:31.540Z,2.10
2017-12-04T12:37:59.851Z,2.00
2017-12-04T12:40:28.093Z,2.10
2017-12-04T12:42:56.342Z,2.10
2017-12-04T12:45:25.425Z,1.90
2017-12-04T12:47:53.663Z,1.90
2017-12-04T12:50:21.899Z,2.00
2017-12-04T12:52:50.212Z,1.80
2017-12-04T12:55:18.434Z,1.70
2017-12-04T12:57:47.438Z,1.60
2017-12-04T13:00:15.758Z,1.60
2017-12-04T13:02:44.763Z,1.60
2017-12-04T13:05:13.004Z,1.60
2017-12-04T13:07:41.388Z,1.70
2017-12-04T13:10:09.621Z,1.60
2017-12-04T13:12:37.881Z,1.80
2017-12-04T13:15:06.166Z,1.80
2017-12-04T13:17:34.413Z,1.80
2017-12-04T13:20:03.173Z,1.70
2017-12-04T13:22:31.598Z,1.60
2017-12-04T13:24:59.832Z,1.70
2017-12-04T13:27:28.981Z,1.70
2017-12-04T13:29:57.297Z,1.70
2017-12-04T13:32:43.455Z,1.80
2017-12-04T13:35:30.357Z,1.80
2017-12-04T13:37:58.632Z,1.80
2017-12-04T13:40:26.869Z,1.90
2017-12-04T13:42:55.180Z,1.60
2017-12-04T13:45:23.405Z,1.70
2017-12-04T13:47:51.665Z,1.60
2017-12-04T13:50:19.988Z,1.60
2017-12-04T13:52:48.234Z,1.60
2017-12-04T13:55:16.755Z,1.50
2017-12-04T13:57:45.121Z,1.60
2017-12-04T14:00:13.378Z,1.50
2017-12-04T14:02:41.628Z,1.70
2017-12-04T14:05:09.894Z,1.70
2017-12-04T14:07:39.048Z,1.70
2017-12-04T14:10:07.297Z,1.70
2017-12-04T14:12:35.514Z,1.70
2017-12-04T14:15:03.872Z,1.70
2017-12-04T14:17:32.866Z,1.70
2017-12-04T14:20:01.092Z,1.70
2017-12-04T14:22:29.408Z,1.70
2017-12-04T14:24:57.637Z,1.70
2017-12-04T14:27:26.642Z,1.80
2017-12-04T14:29:54.970Z,1.70
2017-12-04T14:32:23.210Z,1.70
2017-12-04T14:34:51.423Z,1.70
2017-12-04T14:37:19.764Z,1.70
2017-12-04T14:39:48.034Z,1.70
2017-12-04T14:42:16.279Z,1.80
2017-12-04T14:44:45.390Z,1.70
2017-12-04T14:47:13.644Z,1.60
2017-12-04T14:49:42.653Z,1.70
2017-12-04T14:52:11.729Z,1.70
2017-12-04T14:54:40.745Z,1.70
2017-12-04T14:57:08.990Z,1.70
2017-12-04T14:59:37.333Z,1.60
2017-12-04T15:02:05.582Z,1.60
2017-12-04T15:04:33.838Z,1.70
2017-12-04T15:07:02.918Z,1.80
2017-12-04T15:09:32.266Z,1.60
2017-12-04T15:12:00.538Z,1.60
2017-12-04T15:14:28.896Z,1.70
2017-12-04T15:16:57.163Z,1.60
2017-12-04T15:19:25.407Z,1.60
2017-12-04T15:21:53.720Z,1.40
2017-12-04T15:24:21.971Z,1.50
2017-12-04T15:26:50.206Z,1.40
2017-12-04T15:29:18.509Z,1.30
2017-12-04T15:31:46.820Z,1.50
2017-12-04T15:34:15.855Z,1.40
2017-12-04T15:36:44.151Z,1.30
2017-12-04T15:39:12.414Z,1.60
2017-12-04T15:41:40.675Z,1.50
2017-12-04T15:44:09.865Z,1.50
2017-12-04T15:46:38.345Z,1.50
2017-12-04T15:49:06.591Z,1.60
2017-12-04T15:51:34.934Z,1.60
2017-12-04T15:54:03.182Z,1.50
2017-12-04T15:56:31.483Z,1.50
2017-12-04T15:58:59.801Z,1.60
2017-12-04T16:01:28.070Z,1.60
2017-12-04T16:03:57.079Z,1.70
2017-12-04T16:06:25.371Z,1.60
2017-12-04T16:08:53.628Z,1.60
2017-12-04T16:11:21.861Z,1.70
2017-12-04T16:13:51.045Z,1.70
2017-12-04T16:16:19.308Z,1.70
2017-12-04T16:18:47.541Z,1.70
2017-12-04T16:21:16.601Z,1.70
2017-12-04T16:23:44.839Z,1.70
2017-12-04T16:26:13.101Z,1.80
2017-12-04T16:28:41.537Z,1.80
2017-12-04T16:31:10.129Z,1.80
2017-12-04T16:33:38.354Z,1.80
2017-12-04T16:36:06.673Z,1.80
2017-12-04T16:38:34.953Z,1.90
2017-12-04T16:44:00.464Z,1.80
2017-12-04T17:28:19.584Z,1.80
2017-12-04T17:30:47.841Z,1.80
2017-12-04T17:33:40.125Z,1.90
2017-12-04T17:36:08.398Z,1.80
2017-12-04T17:38:37.443Z,1.80
2017-12-04T17:41:06.258Z,1.80
2017-12-04T17:43:34.538Z,1.80
2017-12-04T17:46:02.807Z,1.80
2017-12-04T17:48:31.126Z,1.80
2017-12-04T17:51:00.140Z,1.80
2017-12-04T17:53:28.434Z,1.80
2017-12-04T17:55:56.865Z,1.90
2017-12-04T17:58:25.159Z,1.90
2017-12-04T18:00:53.430Z,1.90
2017-12-04T18:03:22.680Z,2.00
2017-12-04T18:05:51.291Z,1.90
2017-12-04T18:08:19.547Z,1.90
2017-12-04T18:10:48.002Z,2.00
2017-12-04T18:13:16.425Z,2.00
2017-12-04T18:15:44.664Z,2.00
2017-12-04T18:18:13.324Z,2.00
2017-12-04T18:20:41.622Z,2.00
2017-12-04T18:23:09.875Z,2.00
2017-12-04T18:25:38.213Z,2.00
2017-12-04T18:28:06.462Z,2.00
2017-12-04T18:30:35.069Z,1.90
2017-12-04T18:33:03.385Z,2.00
2017-12-04T18:35:32.801Z,1.90
2017-12-04T18:38:01.076Z,1.90
2017-12-04T18:40:30.155Z,1.90
2017-12-04T18:42:58.459Z,1.90
2017-12-04T18:45:26.791Z,1.90
2017-12-04T18:47:55.152Z,1.90
2017-12-04T18:50:23.415Z,1.90
2017-12-04T18:52:51.673Z,1.80
2017-12-04T18:55:20.084Z,1.80
2017-12-04T18:57:49.128Z,1.90
2017-12-04T19:00:17.389Z,1.90
2017-12-04T19:02:45.830Z,1.80
2017-12-04T19:05:14.084Z,1.80
2017-12-04T19:07:42.342Z,1.80
2017-12-04T19:10:10.715Z,1.80
2017-12-04T19:12:38.960Z,1.80
2017-12-04T19:15:07.276Z,1.80
2017-12-04T19:17:35.602Z,1.80
2017-12-04T19:20:04.754Z,1.90
2017-12-04T19:22:33.023Z,1.80
2017-12-04T19:25:02.099Z,1.90
2017-12-04T19:27:30.365Z,1.90
2017-12-04T19:29:58.645Z,1.90
2017-12-04T19:32:27.042Z,1.90
2017-12-04T19:34:55.331Z,1.90
2017-12-04T19:37:23.586Z,1.90
2017-12-04T19:39:52.013Z,1.90
2017-12-04T19:42:20.288Z,1.80
2017-12-04T19:44:48.653Z,1.90
2017-12-04T19:47:17.154Z,1.90
2017-12-04T19:49:45.389Z,1.80
2017-12-04T19:52:13.701Z,1.80
2017-12-04T19:54:42.959Z,1.80
2017-12-04T19:57:13.645Z,1.80
2017-12-04T19:59:42.886Z,1.80
2017-12-04T20:02:11.905Z,1.80
2017-12-04T20:04:40.363Z,1.80
2017-12-04T20:07:08.672Z,1.80
2017-12-04T20:09:36.976Z,1.80
2017-12-04T20:12:06.164Z,1.80
2017-12-04T20:14:35.174Z,1.90
2017-12-04T20:17:04.230Z,1.90
2017-12-04T20:19:32.635Z,1.90
2017-12-04T20:22:00.905Z,1.90
2017-12-04T20:24:29.158Z,1.80
2017-12-04T20:26:57.466Z,1.80
2017-12-04T20:29:26.483Z,1.80
2017-12-04T20:31:54.739Z,1.80
2017-12-04T20:34:23.891Z,1.90
2017-12-04T20:36:52.165Z,1.80
2017-12-04T20:39:20.442Z,1.80
2017-12-04T20:41:48.973Z,1.80
2017-12-04T20:44:17.222Z,1.80
2017-12-04T20:46:45.523Z,1.90
2017-12-04T20:49:13.910Z,1.80
2017-12-04T20:51:42.177Z,1.90
2017-12-04T20:54:10.503Z,1.90
2017-12-04T20:56:38.822Z,1.90
2017-12-04T20:59:07.880Z,1.90
2017-12-04T21:01:36.380Z,1.90
2017-12-04T21:04:04.621Z,1.90
2017-12-04T21:06:32.963Z,1.90
2017-12-04T21:09:19.134Z,1.90
2017-12-04T21:11:51.238Z,1.80
2017-12-04T21:14:37.429Z,1.80
2017-12-04T21:17:23.535Z,1.90
2017-12-04T21:19:51.933Z,1.80
2017-12-04T21:22:20.207Z,1.80
2017-12-04T21:24:48.463Z,1.80
2017-12-04T21:27:16.897Z,1.80
2017-12-04T21:29:45.142Z,1.80
2017-12-04T21:32:13.528Z,1.90
2017-12-04T21:34:41.822Z,1.90
2017-12-04T21:37:10.103Z,1.90
2017-12-04T21:39:38.371Z,2.00
2017-12-04T21:42:06.886Z,2.00
2017-12-04T21:44:35.912Z,2.40
2017-12-04T21:47:04.223Z,2.00
2017-12-04T21:49:32.697Z,2.00
2017-12-04T21:52:00.958Z,2.00
2017-12-04T21:54:29.223Z,2.00
2017-12-04T21:56:58.368Z,2.00
2017-12-04T21:59:27.444Z,2.10
2017-12-04T22:01:55.683Z,2.00
2017-12-04T22:04:24.140Z,2.10
2017-12-04T22:06:52.375Z,2.00
2017-12-04T22:09:20.784Z,2.00
2017-12-04T22:11:49.231Z,2.10
2017-12-04T22:14:18.300Z,2.10
2017-12-04T22:16:46.664Z,2.00
2017-12-04T22:19:15.066Z,2.10
2017-12-04T22:21:43.452Z,2.10
2017-12-04T22:24:11.824Z,2.10
2017-12-04T22:26:40.197Z,2.10
2017-12-04T22:29:08.456Z,2.10
2017-12-04T22:31:36.687Z,2.10
2017-12-04T22:34:05.770Z,2.20
2017-12-04T22:36:34.076Z,2.10
2017-12-04T22:39:02.361Z,2.20
2017-12-04T22:41:30.626Z,2.20
2017-12-04T22:43:59.013Z,2.20
2017-12-04T22:46:27.346Z,2.20
2017-12-04T22:48:55.626Z,2.20
2017-12-04T22:51:23.953Z,2.20
2017-12-04T22:53:52.230Z,2.20
2017-12-04T22:56:20.478Z,2.20
2017-12-04T22:58:49.463Z,2.20
2017-12-04T23:01:17.750Z,2.20
2017-12-04T23:03:46.102Z,2.20
2017-12-04T23:06:14.339Z,2.20
2017-12-04T23:08:42.622Z,2.20
2017-12-04T23:11:10.919Z,2.30
2017-12-04T23:13:39.174Z,2.20
2017-12-04T23:16:07.400Z,2.20
2017-12-04T23:18:36.575Z,2.20
2017-12-04T23:21:04.849Z,2.20
2017-12-04T23:23:33.118Z,2.20
2017-12-04T23:26:01.423Z,2.20
2017-12-04T23:28:30.421Z,2.20
2017-12-04T23:30:58.676Z,2.20
2017-12-04T23:33:27.728Z,2.20
2017-12-04T23:35:56.194Z,2.10
2017-12-04T23:38:24.507Z,2.20
2017-12-04T23:40:52.750Z,2.20
2017-12-04T23:43:21.810Z,2.20
2017-12-04T23:45:50.118Z,2.20
2017-12-04T23:48:18.368Z,2.20
2017-12-04T23:50:46.675Z,2.20
2017-12-04T23:53:14.918Z,2.20
2017-12-04T23:55:43.912Z,2.20
2017-12-04T23:58:12.989Z,2.20
